Terminal Aerodrome Forecast
Issued by NWS Mt. Holly, NJ

Home | Current Version | Previous Version | Text Only | Print | Product List | Glossary On
Versions: 1 2 3 4 5 6 7 8 9 10 11 12 13 14 15 16 17 18 19
000
FTUS41 KPHI 222325
TAFTTN
TAF
KTTN 222325Z 2300/2324 25006KT P6SM SCT050
     FM230100 23004KT P6SM VCSH SCT050 BKN090
     FM230300 20002KT P6SM BKN090
      TEMPO 2308/2312 5SM BR
     FM231500 23012KT 3SM SHRA BKN035
     FM232100 24011KT 6SM -SHRA BKN040=

USA.gov is the U.S. government's official web portal to all federal, state and local government web resources and services.